sensor_id;sensor_type;location;lat;lon;timestamp;P1;durP1;ratioP1;P2;durP2;ratioP2
47129;SDS011;64709;48.096;11.524;2022-10-31T00:02:04;7.65;;;3.08;;
47129;SDS011;64709;48.096;11.524;2022-10-31T00:04:29;7.63;;;3.92;;
47129;SDS011;64709;48.096;11.524;2022-10-31T00:06:54;5.68;;;3.25;;
47129;SDS011;64709;48.096;11.524;2022-10-31T00:09:20;6.53;;;3.47;;
47129;SDS011;64709;48.096;11.524;2022-10-31T00:11:45;10.15;;;4.93;;
47129;SDS011;64709;48.096;11.524;2022-10-31T00:14:10;7.68;;;3.67;;
47129;SDS011;64709;48.096;11.524;2022-10-31T00:16:36;8.77;;;3.70;;
47129;SDS011;64709;48.096;11.524;2022-10-31T00:19:02;8.57;;;3.65;;
47129;SDS011;64709;48.096;11.524;2022-10-31T00:21:29;8.82;;;4.03;;
47129;SDS011;64709;48.096;11.524;2022-10-31T00:23:56;7.70;;;4.03;;
47129;SDS011;64709;48.096;11.524;2022-10-31T00:26:23;8.75;;;4.22;;
47129;SDS011;64709;48.096;11.524;2022-10-31T00:28:49;7.90;;;4.40;;
47129;SDS011;64709;48.096;11.524;2022-10-31T00:31:15;8.73;;;4.13;;
47129;SDS011;64709;48.096;11.524;2022-10-31T00:33:41;9.55;;;4.07;;
47129;SDS011;64709;48.096;11.524;2022-10-31T00:36:07;8.40;;;4.18;;
47129;SDS011;64709;48.096;11.524;2022-10-31T00:38:36;10.88;;;4.45;;
47129;SDS011;64709;48.096;11.524;2022-10-31T00:41:02;9.98;;;4.13;;
47129;SDS011;64709;48.096;11.524;2022-10-31T00:43:27;9.05;;;4.22;;
47129;SDS011;64709;48.096;11.524;2022-10-31T00:45:52;10.18;;;4.13;;
47129;SDS011;64709;48.096;11.524;2022-10-31T00:48:17;9.15;;;3.72;;
47129;SDS011;64709;48.096;11.524;2022-10-31T00:50:43;8.18;;;4.00;;
47129;SDS011;64709;48.096;11.524;2022-10-31T00:53:08;7.10;;;3.38;;
47129;SDS011;64709;48.096;11.524;2022-10-31T00:55:33;4.85;;;3.05;;
47129;SDS011;64709;48.096;11.524;2022-10-31T00:57:59;7.65;;;4.22;;
47129;SDS011;64709;48.096;11.524;2022-10-31T01:00:24;9.75;;;4.60;;
47129;SDS011;64709;48.096;11.524;2022-10-31T01:02:50;7.80;;;4.55;;
47129;SDS011;64709;48.096;11.524;2022-10-31T01:05:15;7.03;;;3.63;;
47129;SDS011;64709;48.096;11.524;2022-10-31T01:07:41;9.88;;;4.75;;
47129;SDS011;64709;48.096;11.524;2022-10-31T01:10:07;9.13;;;3.75;;
47129;SDS011;64709;48.096;11.524;2022-10-31T01:12:40;8.50;;;3.40;;
47129;SDS011;64709;48.096;11.524;2022-10-31T01:15:08;6.43;;;3.22;;
47129;SDS011;64709;48.096;11.524;2022-10-31T01:17:34;4.28;;;3.22;;
47129;SDS011;64709;48.096;11.524;2022-10-31T01:19:59;5.32;;;2.90;;
47129;SDS011;64709;48.096;11.524;2022-10-31T01:22:25;4.82;;;3.08;;
47129;SDS011;64709;48.096;11.524;2022-10-31T01:24:50;4.18;;;2.45;;
47129;SDS011;64709;48.096;11.524;2022-10-31T01:27:15;6.40;;;3.35;;
47129;SDS011;64709;48.096;11.524;2022-10-31T01:29:40;6.60;;;2.70;;
47129;SDS011;64709;48.096;11.524;2022-10-31T01:32:06;7.95;;;3.10;;
47129;SDS011;64709;48.096;11.524;2022-10-31T01:34:31;7.13;;;2.88;;
47129;SDS011;64709;48.096;11.524;2022-10-31T01:36:56;6.15;;;3.47;;
47129;SDS011;64709;48.096;11.524;2022-10-31T01:39:22;5.85;;;2.80;;
47129;SDS011;64709;48.096;11.524;2022-10-31T01:41:49;5.30;;;3.08;;
47129;SDS011;64709;48.096;11.524;2022-10-31T01:46:51;6.28;;;3.55;;
47129;SDS011;64709;48.096;11.524;2022-10-31T01:49:31;5.50;;;2.70;;
47129;SDS011;64709;48.096;11.524;2022-10-31T01:52:00;4.82;;;2.78;;
47129;SDS011;64709;48.096;11.524;2022-10-31T01:54:33;6.97;;;3.15;;
47129;SDS011;64709;48.096;11.524;2022-10-31T01:57:01;5.78;;;3.03;;
47129;SDS011;64709;48.096;11.524;2022-10-31T01:59:29;5.80;;;2.85;;
47129;SDS011;64709;48.096;11.524;2022-10-31T02:01:58;5.55;;;3.17;;
47129;SDS011;64709;48.096;11.524;2022-10-31T02:04:24;6.25;;;2.85;;
47129;SDS011;64709;48.096;11.524;2022-10-31T02:06:58;6.38;;;2.90;;
47129;SDS011;64709;48.096;11.524;2022-10-31T02:09:27;5.75;;;2.92;;
47129;SDS011;64709;48.096;11.524;2022-10-31T02:11:56;5.43;;;2.60;;
47129;SDS011;64709;48.096;11.524;2022-10-31T02:14:24;6.13;;;2.63;;
47129;SDS011;64709;48.096;11.524;2022-10-31T02:16:56;5.15;;;2.33;;
47129;SDS011;64709;48.096;11.524;2022-10-31T02:22:12;8.65;;;3.60;;
47129;SDS011;64709;48.096;11.524;2022-10-31T02:31:10;3.88;;;2.45;;
47129;SDS011;64709;48.096;11.524;2022-10-31T02:33:43;4.70;;;2.50;;
47129;SDS011;64709;48.096;11.524;2022-10-31T02:36:26;4.85;;;2.35;;
47129;SDS011;64709;48.096;11.524;2022-10-31T02:41:47;4.32;;;2.60;;
47129;SDS011;64709;48.096;11.524;2022-10-31T02:46:54;6.13;;;3.13;;
47129;SDS011;64709;48.096;11.524;2022-10-31T02:49:38;4.80;;;2.38;;
47129;SDS011;64709;48.096;11.524;2022-10-31T02:52:13;5.50;;;2.53;;
47129;SDS011;64709;48.096;11.524;2022-10-31T02:54:54;6.15;;;2.50;;
47129;SDS011;64709;48.096;11.524;2022-10-31T02:57:22;6.40;;;3.00;;
47129;SDS011;64709;48.096;11.524;2022-10-31T03:00:00;4.72;;;2.40;;
47129;SDS011;64709;48.096;11.524;2022-10-31T03:10:47;3.90;;;2.10;;
47129;SDS011;64709;48.096;11.524;2022-10-31T03:15:53;6.45;;;3.33;;
47129;SDS011;64709;48.096;11.524;2022-10-31T03:18:32;5.18;;;2.25;;
47129;SDS011;64709;48.096;11.524;2022-10-31T03:21:05;6.05;;;2.80;;
47129;SDS011;64709;48.096;11.524;2022-10-31T03:23:41;6.15;;;2.75;;
47129;SDS011;64709;48.096;11.524;2022-10-31T03:26:09;3.42;;;2.03;;
47129;SDS011;64709;48.096;11.524;2022-10-31T03:28:38;5.15;;;2.75;;
47129;SDS011;64709;48.096;11.524;2022-10-31T03:31:10;5.65;;;2.78;;
47129;SDS011;64709;48.096;11.524;2022-10-31T03:33:40;5.35;;;2.40;;
47129;SDS011;64709;48.096;11.524;2022-10-31T03:36:07;6.13;;;2.80;;
47129;SDS011;64709;48.096;11.524;2022-10-31T03:38:36;5.43;;;2.60;;
47129;SDS011;64709;48.096;11.524;2022-10-31T03:41:03;4.95;;;2.88;;
47129;SDS011;64709;48.096;11.524;2022-10-31T03:43:36;4.32;;;2.30;;
47129;SDS011;64709;48.096;11.524;2022-10-31T03:46:06;6.72;;;2.88;;
47129;SDS011;64709;48.096;11.524;2022-10-31T03:48:32;3.03;;;2.00;;
47129;SDS011;64709;48.096;11.524;2022-10-31T03:51:01;7.07;;;3.40;;
47129;SDS011;64709;48.096;11.524;2022-10-31T03:53:36;6.10;;;3.17;;
47129;SDS011;64709;48.096;11.524;2022-10-31T03:56:18;5.55;;;2.75;;
47129;SDS011;64709;48.096;11.524;2022-10-31T03:58:49;6.03;;;2.28;;
47129;SDS011;64709;48.096;11.524;2022-10-31T04:01:31;6.63;;;2.70;;
47129;SDS011;64709;48.096;11.524;2022-10-31T04:03:59;7.25;;;3.50;;
47129;SDS011;64709;48.096;11.524;2022-10-31T04:06:26;5.75;;;2.78;;
47129;SDS011;64709;48.096;11.524;2022-10-31T04:08:54;8.05;;;3.05;;
47129;SDS011;64709;48.096;11.524;2022-10-31T04:13:53;5.40;;;2.60;;
47129;SDS011;64709;48.096;11.524;2022-10-31T04:16:20;4.00;;;2.40;;
47129;SDS011;64709;48.096;11.524;2022-10-31T04:18:46;3.80;;;2.35;;
47129;SDS011;64709;48.096;11.524;2022-10-31T04:21:12;4.78;;;2.35;;
47129;SDS011;64709;48.096;11.524;2022-10-31T04:23:37;8.07;;;3.15;;
47129;SDS011;64709;48.096;11.524;2022-10-31T04:26:03;5.90;;;2.78;;
47129;SDS011;64709;48.096;11.524;2022-10-31T04:28:28;5.45;;;2.83;;
47129;SDS011;64709;48.096;11.524;2022-10-31T04:30:54;7.00;;;3.15;;
47129;SDS011;64709;48.096;11.524;2022-10-31T04:33:20;6.03;;;2.78;;
47129;SDS011;64709;48.096;11.524;2022-10-31T04:35:45;5.55;;;2.60;;
47129;SDS011;64709;48.096;11.524;2022-10-31T04:38:11;5.32;;;2.40;;
47129;SDS011;64709;48.096;11.524;2022-10-31T04:40:36;7.25;;;2.72;;
47129;SDS011;64709;48.096;11.524;2022-10-31T04:43:02;6.35;;;2.55;;
47129;SDS011;64709;48.096;11.524;2022-10-31T04:45:27;7.22;;;3.13;;
47129;SDS011;64709;48.096;11.524;2022-10-31T04:47:52;5.70;;;3.00;;
47129;SDS011;64709;48.096;11.524;2022-10-31T04:50:18;5.18;;;2.35;;
47129;SDS011;64709;48.096;11.524;2022-10-31T04:52:44;5.82;;;2.60;;
47129;SDS011;64709;48.096;11.524;2022-10-31T04:55:10;5.35;;;2.38;;
47129;SDS011;64709;48.096;11.524;2022-10-31T04:57:40;5.40;;;2.88;;
47129;SDS011;64709;48.096;11.524;2022-10-31T05:00:10;4.45;;;2.30;;
47129;SDS011;64709;48.096;11.524;2022-10-31T05:03:09;7.43;;;2.67;;
47129;SDS011;64709;48.096;11.524;2022-10-31T05:05:29;4.80;;;2.58;;
47129;SDS011;64709;48.096;11.524;2022-10-31T05:07:55;4.57;;;2.28;;
47129;SDS011;64709;48.096;11.524;2022-10-31T05:10:22;4.72;;;2.15;;
47129;SDS011;64709;48.096;11.524;2022-10-31T05:12:49;6.95;;;3.03;;
47129;SDS011;64709;48.096;11.524;2022-10-31T05:15:17;6.03;;;3.15;;
47129;SDS011;64709;48.096;11.524;2022-10-31T05:17:43;5.72;;;2.50;;
47129;SDS011;64709;48.096;11.524;2022-10-31T05:20:09;6.25;;;2.60;;
47129;SDS011;64709;48.096;11.524;2022-10-31T05:22:35;8.30;;;2.80;;
47129;SDS011;64709;48.096;11.524;2022-10-31T05:25:01;6.93;;;2.80;;
47129;SDS011;64709;48.096;11.524;2022-10-31T05:27:26;7.35;;;3.20;;
47129;SDS011;64709;48.096;11.524;2022-10-31T05:29:51;9.15;;;3.88;;
47129;SDS011;64709;48.096;11.524;2022-10-31T05:32:17;6.78;;;3.45;;
47129;SDS011;64709;48.096;11.524;2022-10-31T05:34:42;6.57;;;3.30;;
47129;SDS011;64709;48.096;11.524;2022-10-31T05:37:07;6.18;;;2.88;;
47129;SDS011;64709;48.096;11.524;2022-10-31T05:39:32;5.72;;;3.00;;
47129;SDS011;64709;48.096;11.524;2022-10-31T05:41:58;6.40;;;3.10;;
47129;SDS011;64709;48.096;11.524;2022-10-31T05:44:23;4.85;;;2.67;;
47129;SDS011;64709;48.096;11.524;2022-10-31T05:46:48;7.50;;;2.63;;
47129;SDS011;64709;48.096;11.524;2022-10-31T05:49:14;6.68;;;3.33;;
47129;SDS011;64709;48.096;11.524;2022-10-31T05:51:39;8.00;;;3.28;;
47129;SDS011;64709;48.096;11.524;2022-10-31T05:54:04;6.28;;;3.03;;
47129;SDS011;64709;48.096;11.524;2022-10-31T05:56:30;5.95;;;3.33;;
47129;SDS011;64709;48.096;11.524;2022-10-31T05:58:55;6.28;;;2.50;;
47129;SDS011;64709;48.096;11.524;2022-10-31T06:01:21;5.13;;;2.42;;
47129;SDS011;64709;48.096;11.524;2022-10-31T06:03:46;5.78;;;2.75;;
47129;SDS011;64709;48.096;11.524;2022-10-31T06:06:11;5.05;;;2.92;;
47129;SDS011;64709;48.096;11.524;2022-10-31T06:08:37;8.38;;;3.53;;
47129;SDS011;64709;48.096;11.524;2022-10-31T06:11:02;4.85;;;2.97;;
47129;SDS011;64709;48.096;11.524;2022-10-31T06:13:27;6.25;;;3.10;;
47129;SDS011;64709;48.096;11.524;2022-10-31T06:15:52;7.45;;;3.38;;
47129;SDS011;64709;48.096;11.524;2022-10-31T06:18:18;6.35;;;3.28;;
47129;SDS011;64709;48.096;11.524;2022-10-31T06:20:43;6.60;;;3.33;;
47129;SDS011;64709;48.096;11.524;2022-10-31T06:23:09;7.75;;;3.33;;
47129;SDS011;64709;48.096;11.524;2022-10-31T06:25:35;6.25;;;3.70;;
47129;SDS011;64709;48.096;11.524;2022-10-31T06:28:00;7.85;;;3.58;;
47129;SDS011;64709;48.096;11.524;2022-10-31T06:30:26;6.78;;;3.40;;
47129;SDS011;64709;48.096;11.524;2022-10-31T06:32:51;8.13;;;3.97;;
47129;SDS011;64709;48.096;11.524;2022-10-31T06:35:17;6.97;;;3.25;;
47129;SDS011;64709;48.096;11.524;2022-10-31T06:37:42;5.63;;;2.78;;
47129;SDS011;64709;48.096;11.524;2022-10-31T06:40:08;4.40;;;3.03;;
47129;SDS011;64709;48.096;11.524;2022-10-31T06:42:33;3.95;;;2.47;;
47129;SDS011;64709;48.096;11.524;2022-10-31T06:44:59;5.38;;;2.40;;
47129;SDS011;64709;48.096;11.524;2022-10-31T06:47:24;9.68;;;5.40;;
47129;SDS011;64709;48.096;11.524;2022-10-31T06:49:49;26.23;;;16.17;;
47129;SDS011;64709;48.096;11.524;2022-10-31T06:52:14;16.70;;;11.38;;
47129;SDS011;64709;48.096;11.524;2022-10-31T06:54:40;15.18;;;9.65;;
47129;SDS011;64709;48.096;11.524;2022-10-31T06:57:05;9.32;;;5.22;;
47129;SDS011;64709;48.096;11.524;2022-10-31T06:59:30;7.38;;;3.05;;
47129;SDS011;64709;48.096;11.524;2022-10-31T07:01:57;9.13;;;4.57;;
47129;SDS011;64709;48.096;11.524;2022-10-31T07:04:22;14.02;;;7.32;;
47129;SDS011;64709;48.096;11.524;2022-10-31T07:06:50;10.80;;;6.38;;
47129;SDS011;64709;48.096;11.524;2022-10-31T07:09:16;9.85;;;4.80;;
47129;SDS011;64709;48.096;11.524;2022-10-31T07:11:41;10.18;;;5.72;;
47129;SDS011;64709;48.096;11.524;2022-10-31T07:14:07;16.98;;;10.52;;
47129;SDS011;64709;48.096;11.524;2022-10-31T07:16:32;13.60;;;8.63;;
47129;SDS011;64709;48.096;11.524;2022-10-31T07:18:57;27.52;;;16.92;;
47129;SDS011;64709;48.096;11.524;2022-10-31T07:21:22;27.45;;;16.08;;
47129;SDS011;64709;48.096;11.524;2022-10-31T07:23:48;18.05;;;11.07;;
47129;SDS011;64709;48.096;11.524;2022-10-31T07:26:13;15.32;;;9.07;;
47129;SDS011;64709;48.096;11.524;2022-10-31T07:28:39;12.02;;;5.97;;
47129;SDS011;64709;48.096;11.524;2022-10-31T07:31:04;7.47;;;3.83;;
47129;SDS011;64709;48.096;11.524;2022-10-31T07:33:29;8.32;;;3.97;;
47129;SDS011;64709;48.096;11.524;2022-10-31T07:35:55;22.55;;;13.27;;
47129;SDS011;64709;48.096;11.524;2022-10-31T07:38:20;25.85;;;17.42;;
47129;SDS011;64709;48.096;11.524;2022-10-31T07:40:49;22.35;;;13.77;;
47129;SDS011;64709;48.096;11.524;2022-10-31T07:43:15;19.92;;;12.23;;
47129;SDS011;64709;48.096;11.524;2022-10-31T07:45:40;34.85;;;22.08;;
47129;SDS011;64709;48.096;11.524;2022-10-31T07:48:05;39.33;;;25.98;;
47129;SDS011;64709;48.096;11.524;2022-10-31T07:50:31;40.45;;;25.90;;
47129;SDS011;64709;48.096;11.524;2022-10-31T07:53:01;30.20;;;19.30;;
47129;SDS011;64709;48.096;11.524;2022-10-31T07:55:27;23.15;;;14.20;;
47129;SDS011;64709;48.096;11.524;2022-10-31T07:57:57;21.35;;;11.77;;
47129;SDS011;64709;48.096;11.524;2022-10-31T08:00:28;17.38;;;10.27;;
47129;SDS011;64709;48.096;11.524;2022-10-31T08:03:01;17.50;;;10.98;;
47129;SDS011;64709;48.096;11.524;2022-10-31T08:05:28;21.27;;;11.27;;
47129;SDS011;64709;48.096;11.524;2022-10-31T08:07:54;14.40;;;8.95;;
47129;SDS011;64709;48.096;11.524;2022-10-31T08:10:20;11.73;;;6.85;;
47129;SDS011;64709;48.096;11.524;2022-10-31T08:12:45;9.00;;;5.43;;
47129;SDS011;64709;48.096;11.524;2022-10-31T08:15:11;7.20;;;4.53;;
47129;SDS011;64709;48.096;11.524;2022-10-31T08:17:36;8.25;;;4.25;;
47129;SDS011;64709;48.096;11.524;2022-10-31T08:20:03;6.78;;;4.00;;
47129;SDS011;64709;48.096;11.524;2022-10-31T08:22:29;5.72;;;3.17;;
47129;SDS011;64709;48.096;11.524;2022-10-31T08:24:54;5.80;;;3.10;;
47129;SDS011;64709;48.096;11.524;2022-10-31T08:27:20;4.25;;;2.75;;
47129;SDS011;64709;48.096;11.524;2022-10-31T08:29:45;5.15;;;2.63;;
47129;SDS011;64709;48.096;11.524;2022-10-31T08:32:10;5.15;;;2.38;;
47129;SDS011;64709;48.096;11.524;2022-10-31T08:34:36;6.70;;;2.72;;
47129;SDS011;64709;48.096;11.524;2022-10-31T08:37:01;6.28;;;3.17;;
47129;SDS011;64709;48.096;11.524;2022-10-31T08:39:26;8.35;;;4.15;;
47129;SDS011;64709;48.096;11.524;2022-10-31T08:41:51;4.60;;;3.03;;
47129;SDS011;64709;48.096;11.524;2022-10-31T08:44:17;7.15;;;3.50;;
47129;SDS011;64709;48.096;11.524;2022-10-31T08:46:42;7.20;;;3.58;;
47129;SDS011;64709;48.096;11.524;2022-10-31T08:49:07;7.70;;;2.53;;
47129;SDS011;64709;48.096;11.524;2022-10-31T08:51:33;6.30;;;2.95;;
47129;SDS011;64709;48.096;11.524;2022-10-31T08:53:58;5.68;;;2.97;;
47129;SDS011;64709;48.096;11.524;2022-10-31T08:56:23;5.70;;;3.60;;
47129;SDS011;64709;48.096;11.524;2022-10-31T08:58:49;6.45;;;2.72;;
47129;SDS011;64709;48.096;11.524;2022-10-31T09:01:16;5.32;;;2.78;;
47129;SDS011;64709;48.096;11.524;2022-10-31T09:03:41;5.95;;;2.60;;
47129;SDS011;64709;48.096;11.524;2022-10-31T09:06:06;6.13;;;3.55;;
47129;SDS011;64709;48.096;11.524;2022-10-31T09:08:34;5.03;;;3.05;;
47129;SDS011;64709;48.096;11.524;2022-10-31T09:11:00;5.00;;;3.15;;
47129;SDS011;64709;48.096;11.524;2022-10-31T09:13:26;7.07;;;3.13;;
47129;SDS011;64709;48.096;11.524;2022-10-31T09:15:51;5.18;;;3.80;;
47129;SDS011;64709;48.096;11.524;2022-10-31T09:18:18;12.52;;;7.50;;
47129;SDS011;64709;48.096;11.524;2022-10-31T09:20:45;12.52;;;6.25;;
47129;SDS011;64709;48.096;11.524;2022-10-31T09:25:38;8.07;;;5.15;;
47129;SDS011;64709;48.096;11.524;2022-10-31T09:28:05;7.95;;;3.95;;
47129;SDS011;64709;48.096;11.524;2022-10-31T09:30:32;12.07;;;8.70;;
47129;SDS011;64709;48.096;11.524;2022-10-31T09:32:58;12.52;;;8.77;;
47129;SDS011;64709;48.096;11.524;2022-10-31T09:35:26;25.92;;;17.70;;
47129;SDS011;64709;48.096;11.524;2022-10-31T09:37:55;12.82;;;8.90;;
47129;SDS011;64709;48.096;11.524;2022-10-31T09:40:21;28.02;;;20.58;;
47129;SDS011;64709;48.096;11.524;2022-10-31T09:42:59;20.10;;;12.60;;
47129;SDS011;64709;48.096;11.524;2022-10-31T09:48:21;8.95;;;5.63;;
47129;SDS011;64709;48.096;11.524;2022-10-31T09:50:48;8.43;;;5.07;;
47129;SDS011;64709;48.096;11.524;2022-10-31T09:53:36;10.88;;;6.40;;
47129;SDS011;64709;48.096;11.524;2022-10-31T09:56:13;7.97;;;4.43;;
47129;SDS011;64709;48.096;11.524;2022-10-31T09:58:43;6.45;;;3.17;;
47129;SDS011;64709;48.096;11.524;2022-10-31T10:01:27;6.00;;;2.38;;
47129;SDS011;64709;48.096;11.524;2022-10-31T10:04:26;4.93;;;2.70;;
47129;SDS011;64709;48.096;11.524;2022-10-31T10:06:53;5.47;;;2.45;;
47129;SDS011;64709;48.096;11.524;2022-10-31T10:09:22;5.70;;;2.95;;
47129;SDS011;64709;48.096;11.524;2022-10-31T10:14:54;8.23;;;3.20;;
47129;SDS011;64709;48.096;11.524;2022-10-31T10:26:19;5.45;;;2.20;;
47129;SDS011;64709;48.096;11.524;2022-10-31T10:28:47;6.70;;;2.58;;
47129;SDS011;64709;48.096;11.524;2022-10-31T10:31:18;5.78;;;2.83;;
47129;SDS011;64709;48.096;11.524;2022-10-31T10:36:48;5.20;;;2.05;;
47129;SDS011;64709;48.096;11.524;2022-10-31T10:39:33;5.70;;;3.42;;
47129;SDS011;64709;48.096;11.524;2022-10-31T10:42:07;5.60;;;1.75;;
47129;SDS011;64709;48.096;11.524;2022-10-31T10:44:55;4.50;;;2.13;;
47129;SDS011;64709;48.096;11.524;2022-10-31T10:47:41;3.55;;;1.92;;
47129;SDS011;64709;48.096;11.524;2022-10-31T10:50:16;6.63;;;2.63;;
47129;SDS011;64709;48.096;11.524;2022-10-31T10:52:50;5.82;;;2.45;;
47129;SDS011;64709;48.096;11.524;2022-10-31T10:58:17;4.22;;;1.83;;
47129;SDS011;64709;48.096;11.524;2022-10-31T11:00:43;6.13;;;2.60;;
47129;SDS011;64709;48.096;11.524;2022-10-31T11:03:14;5.88;;;2.65;;
47129;SDS011;64709;48.096;11.524;2022-10-31T11:08:29;4.03;;;2.38;;
47129;SDS011;64709;48.096;11.524;2022-10-31T11:11:00;5.55;;;2.38;;
47129;SDS011;64709;48.096;11.524;2022-10-31T11:13:33;6.30;;;2.40;;
47129;SDS011;64709;48.096;11.524;2022-10-31T11:16:04;4.82;;;1.80;;
47129;SDS011;64709;48.096;11.524;2022-10-31T11:18:32;6.07;;;2.20;;
47129;SDS011;64709;48.096;11.524;2022-10-31T11:21:02;6.40;;;1.83;;
47129;SDS011;64709;48.096;11.524;2022-10-31T11:23:29;4.75;;;2.25;;
47129;SDS011;64709;48.096;11.524;2022-10-31T11:25:59;5.85;;;2.05;;
47129;SDS011;64709;48.096;11.524;2022-10-31T11:28:27;5.00;;;1.98;;
47129;SDS011;64709;48.096;11.524;2022-10-31T11:33:31;4.43;;;1.98;;
47129;SDS011;64709;48.096;11.524;2022-10-31T11:35:59;6.15;;;2.00;;
47129;SDS011;64709;48.096;11.524;2022-10-31T11:38:39;7.45;;;2.50;;
47129;SDS011;64709;48.096;11.524;2022-10-31T11:41:13;3.53;;;1.73;;
47129;SDS011;64709;48.096;11.524;2022-10-31T11:43:49;3.85;;;2.08;;
47129;SDS011;64709;48.096;11.524;2022-10-31T11:46:26;3.53;;;1.80;;
47129;SDS011;64709;48.096;11.524;2022-10-31T11:48:59;4.47;;;2.38;;
47129;SDS011;64709;48.096;11.524;2022-10-31T11:51:27;7.35;;;2.40;;
47129;SDS011;64709;48.096;11.524;2022-10-31T11:53:59;3.08;;;1.67;;
47129;SDS011;64709;48.096;11.524;2022-10-31T11:56:27;4.13;;;2.03;;
47129;SDS011;64709;48.096;11.524;2022-10-31T11:59:03;4.88;;;1.80;;
47129;SDS011;64709;48.096;11.524;2022-10-31T12:01:31;5.50;;;2.05;;
47129;SDS011;64709;48.096;11.524;2022-10-31T12:04:07;5.65;;;2.53;;
47129;SDS011;64709;48.096;11.524;2022-10-31T12:06:35;3.83;;;1.83;;
47129;SDS011;64709;48.096;11.524;2022-10-31T12:09:08;4.72;;;2.15;;
47129;SDS011;64709;48.096;11.524;2022-10-31T12:20:21;5.65;;;1.92;;
47129;SDS011;64709;48.096;11.524;2022-10-31T12:33:29;6.38;;;2.00;;
47129;SDS011;64709;48.096;11.524;2022-10-31T12:56:26;7.70;;;3.60;;
47129;SDS011;64709;48.096;11.524;2022-10-31T12:59:20;4.10;;;2.22;;
47129;SDS011;64709;48.096;11.524;2022-10-31T13:04:49;26.15;;;17.75;;
47129;SDS011;64709;48.096;11.524;2022-10-31T13:10:21;7.57;;;2.60;;
47129;SDS011;64709;48.096;11.524;2022-10-31T13:12:52;7.15;;;3.90;;
47129;SDS011;64709;48.096;11.524;2022-10-31T13:15:24;10.00;;;7.75;;
47129;SDS011;64709;48.096;11.524;2022-10-31T13:17:58;11.07;;;7.63;;
47129;SDS011;64709;48.096;11.524;2022-10-31T13:20:27;13.68;;;8.63;;
47129;SDS011;64709;48.096;11.524;2022-10-31T13:23:03;8.90;;;4.97;;
47129;SDS011;64709;48.096;11.524;2022-10-31T13:25:38;5.97;;;3.10;;
47129;SDS011;64709;48.096;11.524;2022-10-31T13:30:51;4.78;;;2.33;;
47129;SDS011;64709;48.096;11.524;2022-10-31T13:33:31;7.38;;;2.50;;
47129;SDS011;64709;48.096;11.524;2022-10-31T13:36:24;4.60;;;1.80;;
47129;SDS011;64709;48.096;11.524;2022-10-31T13:38:59;5.23;;;2.23;;
47129;SDS011;64709;48.096;11.524;2022-10-31T13:41:59;4.43;;;2.13;;
47129;SDS011;64709;48.096;11.524;2022-10-31T13:44:26;15.50;;;10.02;;
47129;SDS011;64709;48.096;11.524;2022-10-31T13:46:53;13.68;;;8.40;;
47129;SDS011;64709;48.096;11.524;2022-10-31T13:54:36;5.15;;;2.42;;
47129;SDS011;64709;48.096;11.524;2022-10-31T13:57:01;3.25;;;1.77;;
47129;SDS011;64709;48.096;11.524;2022-10-31T13:59:32;5.45;;;2.40;;
47129;SDS011;64709;48.096;11.524;2022-10-31T14:02:02;2.47;;;1.70;;
47129;SDS011;64709;48.096;11.524;2022-10-31T14:04:49;5.85;;;1.80;;
47129;SDS011;64709;48.096;11.524;2022-10-31T14:07:20;3.45;;;2.00;;
47129;SDS011;64709;48.096;11.524;2022-10-31T14:14:51;6.32;;;2.20;;
47129;SDS011;64709;48.096;11.524;2022-10-31T14:17:27;4.97;;;2.13;;
47129;SDS011;64709;48.096;11.524;2022-10-31T14:22:35;5.10;;;2.10;;
47129;SDS011;64709;48.096;11.524;2022-10-31T14:25:24;4.85;;;1.90;;
47129;SDS011;64709;48.096;11.524;2022-10-31T14:27:59;5.68;;;3.28;;
47129;SDS011;64709;48.096;11.524;2022-10-31T14:30:27;5.78;;;2.22;;
47129;SDS011;64709;48.096;11.524;2022-10-31T14:33:02;3.38;;;2.17;;
47129;SDS011;64709;48.096;11.524;2022-10-31T14:38:48;5.80;;;3.05;;
47129;SDS011;64709;48.096;11.524;2022-10-31T14:41:33;7.18;;;2.55;;
47129;SDS011;64709;48.096;11.524;2022-10-31T14:50:13;4.03;;;2.25;;
47129;SDS011;64709;48.096;11.524;2022-10-31T14:52:40;5.82;;;2.58;;
47129;SDS011;64709;48.096;11.524;2022-10-31T14:55:10;6.95;;;2.30;;
47129;SDS011;64709;48.096;11.524;2022-10-31T14:57:38;6.43;;;2.83;;
47129;SDS011;64709;48.096;11.524;2022-10-31T15:00:16;6.43;;;2.90;;
47129;SDS011;64709;48.096;11.524;2022-10-31T15:02:54;7.00;;;2.95;;
47129;SDS011;64709;48.096;11.524;2022-10-31T15:05:34;7.18;;;3.00;;
47129;SDS011;64709;48.096;11.524;2022-10-31T15:10:38;7.45;;;2.88;;
47129;SDS011;64709;48.096;11.524;2022-10-31T15:13:15;7.68;;;2.90;;
47129;SDS011;64709;48.096;11.524;2022-10-31T15:15:44;5.25;;;2.47;;
47129;SDS011;64709;48.096;11.524;2022-10-31T15:18:13;10.35;;;4.05;;
47129;SDS011;64709;48.096;11.524;2022-10-31T15:20:43;10.05;;;6.97;;
47129;SDS011;64709;48.096;11.524;2022-10-31T15:23:10;14.95;;;9.88;;
47129;SDS011;64709;48.096;11.524;2022-10-31T15:25:40;16.40;;;11.20;;
47129;SDS011;64709;48.096;11.524;2022-10-31T15:28:13;11.10;;;6.40;;
47129;SDS011;64709;48.096;11.524;2022-10-31T15:30:48;8.82;;;4.30;;
47129;SDS011;64709;48.096;11.524;2022-10-31T15:33:20;21.55;;;13.68;;
47129;SDS011;64709;48.096;11.524;2022-10-31T15:35:58;20.20;;;13.25;;
47129;SDS011;64709;48.096;11.524;2022-10-31T15:38:25;20.98;;;12.82;;
47129;SDS011;64709;48.096;11.524;2022-10-31T15:40:56;17.77;;;10.63;;
47129;SDS011;64709;48.096;11.524;2022-10-31T15:43:34;12.75;;;7.40;;
47129;SDS011;64709;48.096;11.524;2022-10-31T15:46:01;15.55;;;11.07;;
47129;SDS011;64709;48.096;11.524;2022-10-31T15:48:29;27.98;;;20.05;;
47129;SDS011;64709;48.096;11.524;2022-10-31T15:50:57;12.38;;;8.88;;
47129;SDS011;64709;48.096;11.524;2022-10-31T15:55:51;7.53;;;4.00;;
47129;SDS011;64709;48.096;11.524;2022-10-31T15:58:19;11.63;;;7.13;;
47129;SDS011;64709;48.096;11.524;2022-10-31T16:00:45;12.63;;;9.10;;
47129;SDS011;64709;48.096;11.524;2022-10-31T16:03:29;12.27;;;7.53;;
47129;SDS011;64709;48.096;11.524;2022-10-31T16:05:57;15.48;;;11.02;;
47129;SDS011;64709;48.096;11.524;2022-10-31T16:10:54;9.10;;;4.72;;
47129;SDS011;64709;48.096;11.524;2022-10-31T16:13:32;10.30;;;3.90;;
47129;SDS011;64709;48.096;11.524;2022-10-31T16:16:15;5.93;;;3.53;;
47129;SDS011;64709;48.096;11.524;2022-10-31T16:18:42;7.07;;;3.78;;
47129;SDS011;64709;48.096;11.524;2022-10-31T16:21:08;11.68;;;6.00;;
47129;SDS011;64709;48.096;11.524;2022-10-31T16:23:35;11.27;;;5.95;;
47129;SDS011;64709;48.096;11.524;2022-10-31T16:26:07;18.38;;;12.45;;
47129;SDS011;64709;48.096;11.524;2022-10-31T16:28:33;13.23;;;8.50;;
47129;SDS011;64709;48.096;11.524;2022-10-31T16:31:00;12.35;;;6.63;;
47129;SDS011;64709;48.096;11.524;2022-10-31T16:36:28;7.38;;;3.92;;
47129;SDS011;64709;48.096;11.524;2022-10-31T16:38:52;10.15;;;6.47;;
47129;SDS011;64709;48.096;11.524;2022-10-31T16:41:18;14.85;;;10.23;;
47129;SDS011;64709;48.096;11.524;2022-10-31T16:43:43;19.75;;;13.82;;
47129;SDS011;64709;48.096;11.524;2022-10-31T16:46:12;19.88;;;12.90;;
47129;SDS011;64709;48.096;11.524;2022-10-31T16:48:40;13.60;;;8.48;;
47129;SDS011;64709;48.096;11.524;2022-10-31T16:51:06;9.32;;;5.85;;
47129;SDS011;64709;48.096;11.524;2022-10-31T16:53:32;9.30;;;5.45;;
47129;SDS011;64709;48.096;11.524;2022-10-31T16:55:58;7.20;;;4.30;;
47129;SDS011;64709;48.096;11.524;2022-10-31T16:58:28;8.98;;;3.88;;
47129;SDS011;64709;48.096;11.524;2022-10-31T17:00:54;7.67;;;4.20;;
47129;SDS011;64709;48.096;11.524;2022-10-31T17:03:20;7.28;;;4.30;;